Bei Facebook empfehlenBei Twitter postenGoogle plusPinterest

Das Wetter im Erzgebirge am 21.05.2017

Wetter und Klima am 21.05.2017 Holzhau im Erzgebirge (630m ü.NN)
Letzte gemessene Temperatur und Uhrzeit der Messung23:45:00 Uhr5.60 °C
Temperatur (Maximum / Höchstwert) und Uhrzeit der Messung16:15:00 Uhr19.10 °C
Temperatur (Minimum / Tiefstwert) und Uhrzeit der Messung06:00:004.40 °C
Errechneter Absolutwert der Temperaturschwankungen zwischen Tmin und Tmax des Tages14.70 K
Errechnete Tagesmitteltemperatur11.70833 °C
Gesamt - Niederschlag des Tages (in flüssiger Form)0.00 Liter / m²
Luftdruck (Maximum / Höchstwert) und Zeitpunkt der Messung12:15:00 Uhr1022.60 hPa
Luftdruck (Minimum / Tiefstwert) und Zeitpunkt der Messung00:15:00 Uhr1019.70 hPa
Errechneter Absolutwert der Luftdruckschwankungen des Tages2.90 hPa
Höchste gemessene Windgeschwindigkeit und Uhrzeit der Messung14:15:00 Uhr21.96 km/h
Errechnete Windhäufigkeit in Relation zu den Messwerten des Tages14.58333 %
Niedrigste Windkühle (Windchill) und Zeitpunkt der Messung06:00:00 Uhr4.40 °C
Taupunkt (Maximum / Höchstwert) und Uhrzeit der Messung10:45:00 Uhr9.80 °C
Taupunkt (Minimum / Tiefstwert) und Uhrzeit der Messung05:30:002.80 °C
Anzahl der automatisch eingelesenen Messwerte 96

Detaillierte Wetter- und Klima- Messwerte für den 21.05.2017 in Holzhau im Erzgebirge (630m ü.NN)
ZeitTemperaturLuftdruckRel. LuftfeuchteWindWindrichtungWindchillTaupunktNiederschlag l/m²
23:45:005.60 °C1020.00 hPa84.00 %2.52 km/hOSO5.60 °C3.10 °C 
23:30:005.80 °C1020.00 hPa83.00 %7.92 km/hOSO5.80 °C3.10 °C 
23:15:006.10 °C1020.00 hPa83.00 %3.40 °C 
23:00:006.30 °C1020.10 hPa82.00 %3.50 °C 
22:45:006.50 °C1020.10 hPa82.00 %3.70 °C 
22:30:006.60 °C1020.20 hPa80.00 %3.40 °C 
22:15:006.80 °C1020.20 hPa78.00 %3.20 °C 
22:00:007.20 °C1020.30 hPa76.00 %3.30 °C 
21:45:007.60 °C1020.20 hPa75.00 %3.50 °C 
21:30:008.30 °C1020.20 hPa72.00 %3.60 °C 
21:15:009.10 °C1020.30 hPa70.00 %3.90 °C 
21:00:0010.10 °C1020.20 hPa67.00 %4.30 °C 
20:45:0011.30 °C1020.30 hPa64.00 %4.70 °C 
20:30:0012.30 °C1020.30 hPa63.00 %5.50 °C 
20:15:0013.40 °C1020.10 hPa60.00 %5.80 °C 
20:00:0014.20 °C1020.30 hPa58.00 %6.10 °C 
19:45:0014.80 °C1020.30 hPa55.00 %5.90 °C 
19:30:0015.50 °C1020.40 hPa54.00 %6.20 °C 
19:15:0016.00 °C1020.40 hPa54.00 %6.70 °C 
19:00:0015.80 °C1020.50 hPa55.00 %6.80 °C 
18:45:0015.90 °C1020.30 hPa54.00 %6.60 °C 
18:30:0016.70 °C1020.50 hPa53.00 %7.10 °C 
18:15:0016.70 °C1020.50 hPa54.00 %12.96 km/hWSW16.70 °C7.40 °C 
18:00:0015.90 °C1020.70 hPa53.00 %6.30 °C 
17:45:0016.80 °C1020.90 hPa53.00 %7.20 °C 
17:30:0017.10 °C1021.20 hPa53.00 %7.50 °C 
17:15:0017.70 °C1021.10 hPa51.00 %7.40 °C 
17:00:0017.10 °C1021.10 hPa53.00 %7.50 °C 
16:45:0017.10 °C1021.30 hPa52.00 %7.20 °C 
16:30:0018.10 °C1021.40 hPa49.00 %7.20 °C 
16:15:0019.10 °C1021.40 hPa48.00 %7.80 °C 
16:00:0018.40 °C1021.40 hPa47.00 %6.90 °C 
15:45:0019.10 °C1021.50 hPa48.00 %7.80 °C 
15:30:0018.20 °C1021.50 hPa53.00 %6.48 km/hNNO18.20 °C8.50 °C 
15:15:0017.30 °C1021.70 hPa54.00 %7.90 °C 
15:00:0017.80 °C1021.90 hPa54.00 %8.40 °C 
14:45:0017.60 °C1021.80 hPa52.00 %7.60 °C 
14:30:0018.40 °C1021.80 hPa50.00 %7.80 °C 
14:15:0018.10 °C1021.80 hPa54.00 %21.96 km/hN18.80 °C8.70 °C 
14:00:0018.30 °C1021.90 hPa52.00 %8.30 °C 
13:45:0018.20 °C1022.00 hPa50.00 %5.04 km/hS18.20 °C7.60 °C 
13:30:0018.40 °C1021.80 hPa52.00 %19.44 km/hONO19.20 °C8.40 °C 
13:15:0017.30 °C1022.00 hPa53.00 %14.40 km/hNW17.30 °C7.60 °C 
13:00:0016.80 °C1022.10 hPa55.00 %7.92 km/hSW16.80 °C7.70 °C 
12:45:0016.90 °C1022.20 hPa54.00 %16.92 km/hSW16.90 °C7.50 °C 
12:30:0017.20 °C1022.20 hPa55.00 %8.10 °C 
12:15:0016.90 °C1022.60 hPa57.00 %21.96 km/hNNO17.40 °C8.30 °C 
12:00:0015.90 °C1022.30 hPa59.00 %7.90 °C 
11:45:0016.10 °C1022.40 hPa61.00 %8.60 °C 
11:30:0016.40 °C1022.40 hPa61.00 %8.90 °C 
11:15:0016.30 °C1022.60 hPa61.00 %8.80 °C 
11:00:0016.10 °C1022.50 hPa61.00 %8.60 °C 
10:45:0016.60 °C1022.20 hPa64.00 %9.80 °C 
10:30:0014.90 °C1022.30 hPa69.00 %11.52 km/hSSO14.90 °C9.30 °C 
10:15:0013.90 °C1022.20 hPa72.00 %8.90 °C 
10:00:0013.80 °C1022.30 hPa73.00 %14.40 km/hSSW13.80 °C9.00 °C 
09:45:0013.90 °C1022.10 hPa73.00 %9.10 °C 
09:30:0013.60 °C1022.10 hPa75.00 %9.30 °C 
09:15:0013.20 °C1022.00 hPa76.00 %9.10 °C 
09:00:0013.30 °C1022.00 hPa74.00 %2.52 km/hSO13.30 °C8.80 °C 
08:45:0013.80 °C1021.80 hPa76.00 %9.60 °C 
08:30:0012.50 °C1022.00 hPa81.00 %9.30 °C 
08:15:0011.60 °C1022.00 hPa82.00 %8.60 °C 
08:00:0011.50 °C1021.60 hPa84.00 %8.90 °C 
07:45:0010.40 °C1021.60 hPa86.00 %8.20 °C 
07:30:009.60 °C1021.40 hPa89.00 %7.90 °C 
07:15:008.80 °C1021.40 hPa91.00 %7.40 °C 
07:00:006.60 °C1021.20 hPa92.00 %5.40 °C 
06:45:005.70 °C1021.10 hPa91.00 %4.30 °C 
06:30:005.00 °C1021.10 hPa91.00 %3.70 °C 
06:15:004.50 °C1021.00 hPa90.00 %3.00 °C 
06:00:004.40 °C1020.80 hPa90.00 %2.90 °C 
05:45:004.40 °C1020.80 hPa90.00 %2.90 °C 
05:30:004.50 °C1020.60 hPa89.00 %2.80 °C 
05:15:004.60 °C1020.70 hPa89.00 %2.90 °C 
05:00:004.80 °C1020.70 hPa89.00 %3.10 °C 
04:45:005.00 °C1020.70 hPa89.00 %3.30 °C 
04:30:005.10 °C1020.60 hPa88.00 %3.30 °C 
04:15:005.20 °C1020.60 hPa88.00 %3.40 °C 
04:00:005.30 °C1020.50 hPa88.00 %3.50 °C 
03:45:005.60 °C1020.40 hPa88.00 %3.80 °C 
03:30:005.80 °C1020.40 hPa87.00 %3.80 °C 
03:15:005.80 °C1020.30 hPa87.00 %3.80 °C 
03:00:005.80 °C1020.30 hPa87.00 %3.80 °C 
02:45:005.90 °C1020.20 hPa86.00 %3.70 °C 
02:30:006.20 °C1020.20 hPa86.00 %4.00 °C 
02:15:006.40 °C1020.20 hPa85.00 %4.10 °C 
02:00:006.60 °C1020.30 hPa84.00 %4.10 °C 
01:45:006.90 °C1020.20 hPa83.00 %4.20 °C 
01:30:007.30 °C1020.10 hPa82.00 %4.40 °C 
01:15:007.80 °C1020.10 hPa81.00 %4.70 °C 
01:00:008.20 °C1020.10 hPa80.00 %5.00 °C 
00:45:008.70 °C1020.00 hPa80.00 %5.40 °C 
00:30:008.90 °C1020.00 hPa79.00 %5.50 °C 
00:15:009.20 °C1019.70 hPa79.00 %5.80 °C 
00:00:009.20 °C1019.80 hPa78.00 %5.60 °C 

Permanenter Link zu dieser Seite: Wetter im Erzgebirge am 21.05.2017
Performance-Info: Die Erstellung der Seite / Statistik(en) / Tabelle(n) erforderte 5 Datenbankserver-Abfrage(n) und dauerte 97 Millisekunden. (Dieser Messwert ist von der Gesamt-Auslastung des Servers abhängig.)
Erzgebirge - Wetter | Erzgebirge - Wetter (Mobilgeräte) | Komplette Klimadatenbank